Bridge Hampton, New York
Current Conditions -  °F | °C
As of 8:28 PM on Wednesday 24 Dec 2014 (Local Time) from KFOK Reporting Station
Light Rain Light Rain  
Wind Chill: 59°   Ceiling: 200
Heat Index: 59°   Visibility: 3mi
Dew Point: 58°   Wind: 10mph
Humidity: 96%   Direction: 180°S
Pressure: 29.63"   Gusts: NA
Location:  40.9594°N, 72.2887°W
Report Text: KFOK 250128Z 18009KT 3SM -RA BR OVC002 15/14 A2963 RMK AO2 P0001 T01500144
Loading
Personal Weather Stations






























Interactive Weather Map New forecast layout! Learn more

10-Day Weather Forecast

Advertisements
Track Severe Weather on mobile